sensor_id;sensor_type;location;lat;lon;timestamp;pressure;altitude;pressure_sealevel;temperature;humidity
8705;BME280;4389;41.932;25.904;2023-07-31T00:01:18;-16675.09;;;22.82;70.44
8705;BME280;4389;41.932;25.904;2023-07-31T00:03:45;-16675.63;;;22.84;70.76
8705;BME280;4389;41.932;25.904;2023-07-31T00:06:12;-16671.38;;;22.68;71.33
8705;BME280;4389;41.932;25.904;2023-07-31T00:08:39;-16674.31;;;22.79;71.03
8705;BME280;4389;41.932;25.904;2023-07-31T00:11:07;-16676.94;;;22.89;70.76
8705;BME280;4389;41.932;25.904;2023-07-31T00:13:34;-16676.69;;;22.88;71.11
8705;BME280;4389;41.932;25.904;2023-07-31T00:16:01;-16676.41;;;22.87;71.58
8705;BME280;4389;41.932;25.904;2023-07-31T00:18:28;-16672.72;;;22.73;71.90
8705;BME280;4389;41.932;25.904;2023-07-31T00:20:55;-16671.25;;;22.68;72.57
8705;BME280;4389;41.932;25.904;2023-07-31T00:23:22;-16670.72;;;22.66;72.69
8705;BME280;4389;41.932;25.904;2023-07-31T00:25:49;-16671.13;;;22.67;72.73
8705;BME280;4389;41.932;25.904;2023-07-31T00:28:17;-16673.25;;;22.75;72.54
8705;BME280;4389;41.932;25.904;2023-07-31T00:30:44;-16671.94;;;22.70;73.03
8705;BME280;4389;41.932;25.904;2023-07-31T00:33:10;-16672.19;;;22.71;73.25
8705;BME280;4389;41.932;25.904;2023-07-31T00:35:37;-16667.44;;;22.53;74.12
8705;BME280;4389;41.932;25.904;2023-07-31T00:38:04;-16667.16;;;22.52;74.66
8705;BME280;4389;41.932;25.904;2023-07-31T00:40:34;-16665.72;;;22.47;75.28
8705;BME280;4389;41.932;25.904;2023-07-31T00:43:01;-16660.44;;;22.27;76.41
8705;BME280;4389;41.932;25.904;2023-07-31T00:45:30;-16662.13;;;22.33;75.62
8705;BME280;4389;41.932;25.904;2023-07-31T00:47:57;-16655.81;;;22.09;77.01
8705;BME280;4389;41.932;25.904;2023-07-31T00:50:25;-16656.84;;;22.13;77.46
8705;BME280;4389;41.932;25.904;2023-07-31T00:52:52;-16652.63;;;21.97;78.17
8705;BME280;4389;41.932;25.904;2023-07-31T00:55:19;-16650.50;;;21.89;79.36
8705;BME280;4389;41.932;25.904;2023-07-31T00:57:48;-16655.28;;;22.07;79.51
8705;BME280;4389;41.932;25.904;2023-07-31T01:00:15;-16657.13;;;22.14;79.02
8705;BME280;4389;41.932;25.904;2023-07-31T01:02:44;-16659.50;;;22.23;79.16
8705;BME280;4389;41.932;25.904;2023-07-31T01:05:11;-16656.31;;;22.11;79.03
8705;BME280;4389;41.932;25.904;2023-07-31T01:07:51;-16653.94;;;22.02;79.03
8705;BME280;4389;41.932;25.904;2023-07-31T01:10:21;-16651.19;;;21.92;79.33
8705;BME280;4389;41.932;25.904;2023-07-31T01:12:51;-16649.72;;;21.86;79.38
8705;BME280;4389;41.932;25.904;2023-07-31T01:15:17;-16649.06;;;21.84;79.80
8705;BME280;4389;41.932;25.904;2023-07-31T01:17:46;-16651.19;;;21.92;79.77
8705;BME280;4389;41.932;25.904;2023-07-31T01:20:17;-16652.63;;;21.97;79.98
8705;BME280;4389;41.932;25.904;2023-07-31T01:26:00;-16655.53;;;22.08;80.34
8705;BME280;4389;41.932;25.904;2023-07-31T01:28:38;-16654.47;;;22.04;80.46
8705;BME280;4389;41.932;25.904;2023-07-31T01:31:08;-16651.84;;;21.94;81.01
8705;BME280;4389;41.932;25.904;2023-07-31T01:33:36;-16651.56;;;21.93;81.32
8705;BME280;4389;41.932;25.904;2023-07-31T01:36:04;-16653.69;;;22.01;81.63
8705;BME280;4389;41.932;25.904;2023-07-31T01:38:31;-16653.94;;;22.02;81.52
8705;BME280;4389;41.932;25.904;2023-07-31T01:40:59;-16654.63;;;22.05;81.52
8705;BME280;4389;41.932;25.904;2023-07-31T01:43:26;-16657.13;;;22.14;81.27
8705;BME280;4389;41.932;25.904;2023-07-31T01:45:53;-16662.13;;;22.33;81.06
8705;BME280;4389;41.932;25.904;2023-07-31T01:48:20;-16665.59;;;22.46;79.96
8705;BME280;4389;41.932;25.904;2023-07-31T01:50:47;-16668.50;;;22.57;79.32
8705;BME280;4389;41.932;25.904;2023-07-31T01:53:14;-16671.94;;;22.70;79.07
8705;BME280;4389;41.932;25.904;2023-07-31T01:55:41;-16674.31;;;22.79;78.44
8705;BME280;4389;41.932;25.904;2023-07-31T01:58:11;-16674.69;;;22.81;78.34
8705;BME280;4389;41.932;25.904;2023-07-31T02:00:37;-16675.34;;;22.83;78.13
8705;BME280;4389;41.932;25.904;2023-07-31T02:03:04;-16675.34;;;22.83;77.93
8705;BME280;4389;41.932;25.904;2023-07-31T02:05:31;-16673.63;;;22.77;78.11
8705;BME280;4389;41.932;25.904;2023-07-31T02:07:58;-16674.56;;;22.80;77.74
8705;BME280;4389;41.932;25.904;2023-07-31T02:10:24;-16673.50;;;22.76;78.20
8705;BME280;4389;41.932;25.904;2023-07-31T02:12:51;-16673.50;;;22.76;78.16
8705;BME280;4389;41.932;25.904;2023-07-31T02:15:19;-16673.91;;;22.78;78.38
8705;BME280;4389;41.932;25.904;2023-07-31T02:17:46;-16668.09;;;22.56;79.12
8705;BME280;4389;41.932;25.904;2023-07-31T02:20:13;-16660.81;;;22.28;80.79
8705;BME280;4389;41.932;25.904;2023-07-31T02:22:40;-16660.03;;;22.25;81.24
8705;BME280;4389;41.932;25.904;2023-07-31T02:25:08;-16657.38;;;22.15;81.87
8705;BME280;4389;41.932;25.904;2023-07-31T02:27:34;-16659.09;;;22.22;81.82
8705;BME280;4389;41.932;25.904;2023-07-31T02:30:01;-16655.81;;;22.09;82.34
8705;BME280;4389;41.932;25.904;2023-07-31T02:32:29;-16657.66;;;22.16;81.89
8705;BME280;4389;41.932;25.904;2023-07-31T02:34:56;-16660.03;;;22.25;81.93
8705;BME280;4389;41.932;25.904;2023-07-31T02:37:23;-16664.53;;;22.42;81.35
8705;BME280;4389;41.932;25.904;2023-07-31T02:39:50;-16666.38;;;22.49;80.49
8705;BME280;4389;41.932;25.904;2023-07-31T02:42:17;-16669.53;;;22.61;80.12
8705;BME280;4389;41.932;25.904;2023-07-31T02:44:44;-16670.59;;;22.65;80.08
8705;BME280;4389;41.932;25.904;2023-07-31T02:47:11;-16672.19;;;22.71;80.06
8705;BME280;4389;41.932;25.904;2023-07-31T02:49:39;-16670.06;;;22.63;80.08
8705;BME280;4389;41.932;25.904;2023-07-31T02:52:06;-16670.59;;;22.65;80.49
8705;BME280;4389;41.932;25.904;2023-07-31T02:54:33;-16669.28;;;22.60;80.92
8705;BME280;4389;41.932;25.904;2023-07-31T02:57:00;-16671.66;;;22.69;80.57
8705;BME280;4389;41.932;25.904;2023-07-31T02:59:28;-16675.09;;;22.82;80.20
8705;BME280;4389;41.932;25.904;2023-07-31T03:01:55;-16673.25;;;22.75;80.59
8705;BME280;4389;41.932;25.904;2023-07-31T03:04:21;-16671.66;;;22.69;80.85
8705;BME280;4389;41.932;25.904;2023-07-31T03:06:50;-16669.28;;;22.60;81.57
8705;BME280;4389;41.932;25.904;2023-07-31T03:09:17;-16665.84;;;22.47;81.74
8705;BME280;4389;41.932;25.904;2023-07-31T03:11:43;-16659.63;;;22.24;81.93
8705;BME280;4389;41.932;25.904;2023-07-31T03:14:10;-16656.59;;;22.12;82.39
8705;BME280;4389;41.932;25.904;2023-07-31T03:16:37;-16651.19;;;21.92;83.18
8705;BME280;4389;41.932;25.904;2023-07-31T03:19:04;-16654.22;;;22.03;83.28
8705;BME280;4389;41.932;25.904;2023-07-31T03:21:30;-16657.78;;;22.17;82.80
8705;BME280;4389;41.932;25.904;2023-07-31T03:23:59;-16655.81;;;22.09;83.22
8705;BME280;4389;41.932;25.904;2023-07-31T03:26:25;-16662.41;;;22.34;82.28
8705;BME280;4389;41.932;25.904;2023-07-31T03:28:52;-16674.31;;;22.79;80.76
8705;BME280;4389;41.932;25.904;2023-07-31T03:31:19;-16687.78;;;23.30;78.62
8705;BME280;4389;41.932;25.904;2023-07-31T03:33:46;-16696.22;;;23.62;76.75
8705;BME280;4389;41.932;25.904;2023-07-31T03:36:13;-16705.72;;;23.98;75.19
8705;BME280;4389;41.932;25.904;2023-07-31T03:38:39;-16713.63;;;24.28;73.75
8705;BME280;4389;41.932;25.904;2023-07-31T03:41:08;-16720.38;;;24.53;72.82
8705;BME280;4389;41.932;25.904;2023-07-31T03:43:35;-16722.34;;;24.61;72.30
8705;BME280;4389;41.932;25.904;2023-07-31T03:46:02;-16727.63;;;24.81;71.93
8705;BME280;4389;41.932;25.904;2023-07-31T03:48:29;-16741.59;;;25.34;70.58
8705;BME280;4389;41.932;25.904;2023-07-31T03:50:56;-16746.22;;;25.51;69.44
8705;BME280;4389;41.932;25.904;2023-07-31T03:53:23;-16750.69;;;25.68;68.71
8705;BME280;4389;41.932;25.904;2023-07-31T03:55:50;-16766.66;;;26.29;65.99
8705;BME280;4389;41.932;25.904;2023-07-31T03:58:18;-16776.41;;;26.66;64.29
8705;BME280;4389;41.932;25.904;2023-07-31T04:00:45;-16785.34;;;27.00;62.67
8705;BME280;4389;41.932;25.904;2023-07-31T04:03:12;-16776.94;;;26.68;63.85
8705;BME280;4389;41.932;25.904;2023-07-31T04:05:39;-16768.50;;;26.36;64.53
8705;BME280;4389;41.932;25.904;2023-07-31T04:08:06;-16761.63;;;26.10;66.24
8705;BME280;4389;41.932;25.904;2023-07-31T04:10:33;-16761.78;;;26.10;66.24
8705;BME280;4389;41.932;25.904;2023-07-31T04:13:00;-16767.56;;;26.32;65.70
8705;BME280;4389;41.932;25.904;2023-07-31T04:15:28;-16776.66;;;26.67;65.58
8705;BME280;4389;41.932;25.904;2023-07-31T04:17:55;-16759.53;;;26.02;66.86
8705;BME280;4389;41.932;25.904;2023-07-31T04:20:22;-16745.31;;;25.48;68.38
8705;BME280;4389;41.932;25.904;2023-07-31T04:22:49;-16727.75;;;24.81;72.23
8705;BME280;4389;41.932;25.904;2023-07-31T04:25:16;-16715.22;;;24.34;74.34
8705;BME280;4389;41.932;25.904;2023-07-31T04:27:43;-16705.19;;;23.96;75.83
8705;BME280;4389;41.932;25.904;2023-07-31T04:30:10;-16706.00;;;23.99;76.14
8705;BME280;4389;41.932;25.904;2023-07-31T04:32:38;-16710.34;;;24.16;75.32
8705;BME280;4389;41.932;25.904;2023-07-31T04:35:05;-16720.75;;;24.55;74.15
8705;BME280;4389;41.932;25.904;2023-07-31T04:37:32;-16747.00;;;25.54;70.85
8705;BME280;4389;41.932;25.904;2023-07-31T04:39:59;-16765.06;;;26.23;68.13
8705;BME280;4389;41.932;25.904;2023-07-31T04:42:26;-16794.72;;;27.35;62.96
8705;BME280;4389;41.932;25.904;2023-07-31T04:44:52;-16812.88;;;28.04;59.56
8705;BME280;4389;41.932;25.904;2023-07-31T04:47:19;-16798.00;;;27.48;60.59
8705;BME280;4389;41.932;25.904;2023-07-31T04:49:48;-16775.09;;;26.61;64.61
8705;BME280;4389;41.932;25.904;2023-07-31T04:52:14;-16749.00;;;25.62;69.06
8705;BME280;4389;41.932;25.904;2023-07-31T04:54:41;-16738.19;;;25.21;70.34
8705;BME280;4389;41.932;25.904;2023-07-31T04:57:08;-16718.91;;;24.48;71.58
8705;BME280;4389;41.932;25.904;2023-07-31T04:59:35;-16709.69;;;24.13;74.06
8705;BME280;4389;41.932;25.904;2023-07-31T05:02:02;-16702.28;;;23.85;75.02
8705;BME280;4389;41.932;25.904;2023-07-31T05:04:29;-16709.94;;;24.14;74.24
8705;BME280;4389;41.932;25.904;2023-07-31T05:06:57;-16703.47;;;23.90;74.32
8705;BME280;4389;41.932;25.904;2023-07-31T05:09:24;-16707.56;;;24.05;74.77
8705;BME280;4389;41.932;25.904;2023-07-31T05:11:51;-16706.00;;;23.99;75.28
8705;BME280;4389;41.932;25.904;2023-07-31T05:14:18;-16706.50;;;24.01;75.26
8705;BME280;4389;41.932;25.904;2023-07-31T05:16:45;-16704.41;;;23.93;75.57
8705;BME280;4389;41.932;25.904;2023-07-31T05:19:12;-16706.25;;;24.00;75.36
8705;BME280;4389;41.932;25.904;2023-07-31T05:21:39;-16697.41;;;23.67;74.06
8705;BME280;4389;41.932;25.904;2023-07-31T05:24:07;-16703.34;;;23.89;73.67
8705;BME280;4389;41.932;25.904;2023-07-31T05:26:34;-16711.00;;;24.18;72.94
8705;BME280;4389;41.932;25.904;2023-07-31T05:29:01;-16710.59;;;24.17;71.20
8705;BME280;4389;41.932;25.904;2023-07-31T05:31:28;-16708.88;;;24.10;71.64
8705;BME280;4389;41.932;25.904;2023-07-31T05:33:55;-16714.03;;;24.30;71.25
8705;BME280;4389;41.932;25.904;2023-07-31T05:36:22;-16706.38;;;24.01;71.76
8705;BME280;4389;41.932;25.904;2023-07-31T05:38:48;-16709.16;;;24.11;71.76
8705;BME280;4389;41.932;25.904;2023-07-31T05:41:17;-16719.72;;;24.51;70.51
8705;BME280;4389;41.932;25.904;2023-07-31T05:43:44;-16720.63;;;24.54;70.59
8705;BME280;4389;41.932;25.904;2023-07-31T05:46:11;-16721.81;;;24.59;70.91
8705;BME280;4389;41.932;25.904;2023-07-31T05:48:38;-16713.50;;;24.27;71.73
8705;BME280;4389;41.932;25.904;2023-07-31T05:51:05;-16704.16;;;23.92;72.98
8705;BME280;4389;41.932;25.904;2023-07-31T05:53:32;-16709.94;;;24.14;73.24
8705;BME280;4389;41.932;25.904;2023-07-31T05:55:59;-16715.22;;;24.34;72.36
8705;BME280;4389;41.932;25.904;2023-07-31T05:58:27;-16716.81;;;24.40;72.28
8705;BME280;4389;41.932;25.904;2023-07-31T06:00:54;-16719.44;;;24.50;70.55
8705;BME280;4389;41.932;25.904;2023-07-31T06:03:21;-16722.34;;;24.61;69.42
8705;BME280;4389;41.932;25.904;2023-07-31T06:05:48;-16717.88;;;24.44;69.50
8705;BME280;4389;41.932;25.904;2023-07-31T06:08:15;-16718.38;;;24.46;69.48
8705;BME280;4389;41.932;25.904;2023-07-31T06:10:42;-16724.19;;;24.68;67.59
8705;BME280;4389;41.932;25.904;2023-07-31T06:13:09;-16724.06;;;24.67;66.98
8705;BME280;4389;41.932;25.904;2023-07-31T06:15:37;-16726.03;;;24.75;66.31
8705;BME280;4389;41.932;25.904;2023-07-31T06:18:04;-16733.16;;;25.02;66.37
8705;BME280;4389;41.932;25.904;2023-07-31T06:20:33;-16738.97;;;25.24;64.81
8705;BME280;4389;41.932;25.904;2023-07-31T06:23:00;-16745.16;;;25.47;63.67
8705;BME280;4389;41.932;25.904;2023-07-31T06:25:27;-16745.16;;;25.47;63.50
8705;BME280;4389;41.932;25.904;2023-07-31T06:27:55;-16746.88;;;25.54;63.42
8705;BME280;4389;41.932;25.904;2023-07-31T06:30:22;-16746.47;;;25.52;59.71
8705;BME280;4389;41.932;25.904;2023-07-31T06:32:50;-16751.09;;;25.70;61.28
8705;BME280;4389;41.932;25.904;2023-07-31T06:35:17;-16749.00;;;25.62;59.90
8705;BME280;4389;41.932;25.904;2023-07-31T06:37:43;-16742.53;;;25.37;60.89
8705;BME280;4389;41.932;25.904;2023-07-31T06:40:11;-16737.38;;;25.18;61.57
8705;BME280;4389;41.932;25.904;2023-07-31T06:42:37;-16738.19;;;25.21;62.45
8705;BME280;4389;41.932;25.904;2023-07-31T06:45:05;-16736.06;;;25.13;62.59
8705;BME280;4389;41.932;25.904;2023-07-31T06:47:32;-16736.31;;;25.14;61.99
8705;BME280;4389;41.932;25.904;2023-07-31T06:50:01;-16735.28;;;25.10;62.73
8705;BME280;4389;41.932;25.904;2023-07-31T06:52:27;-16735.41;;;25.10;63.15
8705;BME280;4389;41.932;25.904;2023-07-31T06:55:14;-16729.47;;;24.88;64.22
8705;BME280;4389;41.932;25.904;2023-07-31T06:57:43;-16724.19;;;24.68;65.03
8705;BME280;4389;41.932;25.904;2023-07-31T07:00:10;-16720.22;;;24.53;65.61
8705;BME280;4389;41.932;25.904;2023-07-31T07:02:37;-16713.13;;;24.26;67.00
8705;BME280;4389;41.932;25.904;2023-07-31T07:05:06;-16709.16;;;24.11;68.46
8705;BME280;4389;41.932;25.904;2023-07-31T07:07:33;-16701.50;;;23.82;70.70
8705;BME280;4389;41.932;25.904;2023-07-31T07:10:00;-16697.41;;;23.67;72.80
8705;BME280;4389;41.932;25.904;2023-07-31T07:12:30;-16693.56;;;23.52;74.47
8705;BME280;4389;41.932;25.904;2023-07-31T07:14:57;-16686.72;;;23.26;77.81
8705;BME280;4389;41.932;25.904;2023-07-31T07:17:24;-16684.59;;;23.18;80.23
8705;BME280;4389;41.932;25.904;2023-07-31T07:19:51;-16682.22;;;23.09;81.13
8705;BME280;4389;41.932;25.904;2023-07-31T07:22:19;-16677.47;;;22.91;83.24
8705;BME280;4389;41.932;25.904;2023-07-31T07:24:46;-16672.44;;;22.72;85.29
8705;BME280;4389;41.932;25.904;2023-07-31T07:27:13;-16667.97;;;22.55;87.07
8705;BME280;4389;41.932;25.904;2023-07-31T07:29:40;-16668.50;;;22.57;88.39
8705;BME280;4389;41.932;25.904;2023-07-31T07:32:07;-16672.97;;;22.74;89.39
8705;BME280;4389;41.932;25.904;2023-07-31T07:34:34;-16674.81;;;22.81;89.56
8705;BME280;4389;41.932;25.904;2023-07-31T07:37:01;-16671.00;;;22.67;91.11
8705;BME280;4389;41.932;25.904;2023-07-31T07:39:30;-16665.84;;;22.47;92.57
8705;BME280;4389;41.932;25.904;2023-07-31T07:41:56;-16660.03;;;22.25;93.50
8705;BME280;4389;41.932;25.904;2023-07-31T07:44:23;-16654.22;;;22.03;93.65
8705;BME280;4389;41.932;25.904;2023-07-31T07:46:50;-16656.72;;;22.13;95.10
8705;BME280;4389;41.932;25.904;2023-07-31T07:49:17;-16659.91;;;22.25;95.68
8705;BME280;4389;41.932;25.904;2023-07-31T07:51:44;-16665.06;;;22.44;96.61
8705;BME280;4389;41.932;25.904;2023-07-31T07:54:10;-16664.53;;;22.42;95.06
8705;BME280;4389;41.932;25.904;2023-07-31T07:56:39;-16664.53;;;22.42;95.04
8705;BME280;4389;41.932;25.904;2023-07-31T07:59:05;-16664.13;;;22.41;95.04
8705;BME280;4389;41.932;25.904;2023-07-31T08:01:32;-16665.44;;;22.46;95.35
8705;BME280;4389;41.932;25.904;2023-07-31T08:03:59;-16676.53;;;22.88;96.48
8705;BME280;4389;41.932;25.904;2023-07-31T08:06:26;-16680.50;;;23.03;92.63
8705;BME280;4389;41.932;25.904;2023-07-31T08:08:55;-16683.81;;;23.15;91.04
8705;BME280;4389;41.932;25.904;2023-07-31T08:11:21;-16676.53;;;22.88;92.65
8705;BME280;4389;41.932;25.904;2023-07-31T08:13:50;-16674.56;;;22.80;93.23
8705;BME280;4389;41.932;25.904;2023-07-31T08:16:17;-16682.75;;;23.11;93.36
8705;BME280;4389;41.932;25.904;2023-07-31T08:18:44;-16695.16;;;23.58;92.96
8705;BME280;4389;41.932;25.904;2023-07-31T08:21:10;-16700.31;;;23.78;91.32
8705;BME280;4389;41.932;25.904;2023-07-31T08:23:37;-16707.56;;;24.05;90.47
8705;BME280;4389;41.932;25.904;2023-07-31T08:26:04;-16707.31;;;24.04;89.42
8705;BME280;4389;41.932;25.904;2023-07-31T08:28:31;-16709.28;;;24.12;87.83
8705;BME280;4389;41.932;25.904;2023-07-31T08:30:59;-16710.59;;;24.17;88.64
8705;BME280;4389;41.932;25.904;2023-07-31T08:33:26;-16712.72;;;24.25;86.63
8705;BME280;4389;41.932;25.904;2023-07-31T08:35:53;-16712.06;;;24.22;87.01
8705;BME280;4389;41.932;25.904;2023-07-31T08:38:19;-16713.63;;;24.28;85.89
8705;BME280;4389;41.932;25.904;2023-07-31T08:40:46;-16716.69;;;24.39;84.38
8705;BME280;4389;41.932;25.904;2023-07-31T08:43:13;-16723.00;;;24.63;83.54
8705;BME280;4389;41.932;25.904;2023-07-31T08:45:41;-16727.22;;;24.79;84.11
8705;BME280;4389;41.932;25.904;2023-07-31T08:48:11;-16719.03;;;24.48;83.85
8705;BME280;4389;41.932;25.904;2023-07-31T08:50:38;-16713.63;;;24.28;84.79
8705;BME280;4389;41.932;25.904;2023-07-31T08:53:05;-16703.34;;;23.89;87.60
8705;BME280;4389;41.932;25.904;2023-07-31T08:55:32;-16709.56;;;24.13;87.62
8705;BME280;4389;41.932;25.904;2023-07-31T08:58:00;-16697.94;;;23.69;89.24
8705;BME280;4389;41.932;25.904;2023-07-31T09:00:29;-16706.00;;;23.99;88.86
8705;BME280;4389;41.932;25.904;2023-07-31T09:02:59;-16707.31;;;24.04;88.02
8705;BME280;4389;41.932;25.904;2023-07-31T09:05:31;-16708.63;;;24.09;88.16
8705;BME280;4389;41.932;25.904;2023-07-31T09:08:03;-16711.78;;;24.21;88.13
8705;BME280;4389;41.932;25.904;2023-07-31T09:10:30;-16718.91;;;24.48;86.49
8705;BME280;4389;41.932;25.904;2023-07-31T09:12:57;-16732.25;;;24.98;84.48
8705;BME280;4389;41.932;25.904;2023-07-31T09:15:24;-16732.13;;;24.98;83.84
8705;BME280;4389;41.932;25.904;2023-07-31T09:17:59;-16732.63;;;25.00;83.16
8705;BME280;4389;41.932;25.904;2023-07-31T09:20:26;-16746.75;;;25.53;82.05
8705;BME280;4389;41.932;25.904;2023-07-31T09:22:55;-16759.00;;;26.00;80.27
8705;BME280;4389;41.932;25.904;2023-07-31T09:25:23;-16763.34;;;26.16;78.51
8705;BME280;4389;41.932;25.904;2023-07-31T09:27:52;-16765.06;;;26.23;77.82
8705;BME280;4389;41.932;25.904;2023-07-31T09:30:20;-16749.25;;;25.63;79.71
8705;BME280;4389;41.932;25.904;2023-07-31T09:32:49;-16754.00;;;25.81;78.40
8705;BME280;4389;41.932;25.904;2023-07-31T09:35:19;-16754.38;;;25.82;79.00
8705;BME280;4389;41.932;25.904;2023-07-31T09:37:51;-16756.63;;;25.91;79.85
8705;BME280;4389;41.932;25.904;2023-07-31T09:40:30;-16765.19;;;26.23;77.59
8705;BME280;4389;41.932;25.904;2023-07-31T09:42:57;-16761.13;;;26.08;76.82
8705;BME280;4389;41.932;25.904;2023-07-31T09:45:25;-16764.41;;;26.20;74.44
8705;BME280;4389;41.932;25.904;2023-07-31T09:47:53;-16768.22;;;26.35;73.58
8705;BME280;4389;41.932;25.904;2023-07-31T09:50:22;-16768.63;;;26.36;74.58
8705;BME280;4389;41.932;25.904;2023-07-31T09:52:49;-16758.63;;;25.98;75.15
8705;BME280;4389;41.932;25.904;2023-07-31T09:55:17;-16761.38;;;26.09;76.78
8705;BME280;4389;41.932;25.904;2023-07-31T09:57:47;-16771.66;;;26.48;75.88
8705;BME280;4389;41.932;25.904;2023-07-31T10:00:16;-16783.66;;;26.93;72.97
8705;BME280;4389;41.932;25.904;2023-07-31T10:02:46;-16790.63;;;27.20;71.59
8705;BME280;4389;41.932;25.904;2023-07-31T10:05:14;-16790.38;;;27.19;72.49
8705;BME280;4389;41.932;25.904;2023-07-31T10:07:43;-16792.22;;;27.26;73.68
8705;BME280;4389;41.932;25.904;2023-07-31T10:10:13;-16795.63;;;27.39;72.65
8705;BME280;4389;41.932;25.904;2023-07-31T10:12:42;-16800.88;;;27.59;71.31
8705;BME280;4389;41.932;25.904;2023-07-31T10:15:12;-16795.91;;;27.40;70.22
8705;BME280;4389;41.932;25.904;2023-07-31T10:17:39;-16795.50;;;27.38;70.56
8705;BME280;4389;41.932;25.904;2023-07-31T10:20:07;-16803.53;;;27.69;70.49
8705;BME280;4389;41.932;25.904;2023-07-31T10:22:35;-16809.19;;;27.90;68.77
8705;BME280;4389;41.932;25.904;2023-07-31T10:25:02;-16802.72;;;27.66;70.12
8705;BME280;4389;41.932;25.904;2023-07-31T10:27:29;-16810.38;;;27.95;69.36
8705;BME280;4389;41.932;25.904;2023-07-31T10:29:57;-16823.53;;;28.45;67.06
8705;BME280;4389;41.932;25.904;2023-07-31T10:32:26;-16817.47;;;28.22;68.34
8705;BME280;4389;41.932;25.904;2023-07-31T10:34:54;-16831.41;;;28.75;66.51
8705;BME280;4389;41.932;25.904;2023-07-31T10:37:23;-16844.03;;;29.23;64.37
8705;BME280;4389;41.932;25.904;2023-07-31T10:39:58;-16841.16;;;29.12;63.77
8705;BME280;4389;41.932;25.904;2023-07-31T10:42:29;-16835.38;;;28.90;63.27
8705;BME280;4389;41.932;25.904;2023-07-31T10:44:57;-16834.84;;;28.88;64.26
8705;BME280;4389;41.932;25.904;2023-07-31T10:47:26;-16839.06;;;29.04;62.93
8705;BME280;4389;41.932;25.904;2023-07-31T10:49:53;-16851.41;;;29.51;60.88
8705;BME280;4389;41.932;25.904;2023-07-31T10:52:37;-16854.97;;;29.64;58.52
8705;BME280;4389;41.932;25.904;2023-07-31T10:55:14;-16854.03;;;29.61;58.58
8705;BME280;4389;41.932;25.904;2023-07-31T10:57:44;-16848.25;;;29.39;55.69
8705;BME280;4389;41.932;25.904;2023-07-31T11:00:20;-16849.81;;;29.45;58.93
8705;BME280;4389;41.932;25.904;2023-07-31T11:03:02;-16852.31;;;29.54;59.56
8705;BME280;4389;41.932;25.904;2023-07-31T11:08:21;-16853.25;;;29.58;54.30
8705;BME280;4389;41.932;25.904;2023-07-31T11:10:51;-16848.00;;;29.38;55.27
8705;BME280;4389;41.932;25.904;2023-07-31T11:13:18;-16851.66;;;29.52;54.46
8705;BME280;4389;41.932;25.904;2023-07-31T11:15:45;-16859.56;;;29.82;53.48
8705;BME280;4389;41.932;25.904;2023-07-31T11:18:13;-16867.19;;;30.11;52.79
8705;BME280;4389;41.932;25.904;2023-07-31T11:20:40;-16866.66;;;30.09;51.82
8705;BME280;4389;41.932;25.904;2023-07-31T11:23:09;-16862.44;;;29.93;51.65
8705;BME280;4389;41.932;25.904;2023-07-31T11:25:36;-16857.31;;;29.73;52.73
8705;BME280;4389;41.932;25.904;2023-07-31T11:28:05;-16865.47;;;30.04;51.38
8705;BME280;4389;41.932;25.904;2023-07-31T11:30:32;-16865.34;;;30.04;51.45
8705;BME280;4389;41.932;25.904;2023-07-31T11:33:02;-16853.78;;;29.60;52.06
8705;BME280;4389;41.932;25.904;2023-07-31T11:35:32;-16855.63;;;29.67;51.84
8705;BME280;4389;41.932;25.904;2023-07-31T11:38:00;-16858.50;;;29.78;50.11
8705;BME280;4389;41.932;25.904;2023-07-31T11:40:27;-16858.50;;;29.78;50.14
8705;BME280;4389;41.932;25.904;2023-07-31T11:42:56;-16859.56;;;29.82;51.50
8705;BME280;4389;41.932;25.904;2023-07-31T11:45:25;-16864.16;;;29.99;50.50
8705;BME280;4389;41.932;25.904;2023-07-31T11:47:55;-16872.44;;;30.31;49.87
8705;BME280;4389;41.932;25.904;2023-07-31T11:50:23;-16868.88;;;30.17;50.01
8705;BME280;4389;41.932;25.904;2023-07-31T11:52:56;-16866.38;;;30.08;49.65
8705;BME280;4389;41.932;25.904;2023-07-31T11:55:24;-16868.88;;;30.17;50.16
8705;BME280;4389;41.932;25.904;2023-07-31T11:57:51;-16875.59;;;30.42;50.75
8705;BME280;4389;41.932;25.904;2023-07-31T12:00:19;-16876.91;;;30.47;48.24
8705;BME280;4389;41.932;25.904;2023-07-31T12:02:47;-16875.84;;;30.43;48.75
8705;BME280;4389;41.932;25.904;2023-07-31T12:05:14;-16869.03;;;30.18;48.82
8705;BME280;4389;41.932;25.904;2023-07-31T12:07:45;-16878.22;;;30.52;49.23
8705;BME280;4389;41.932;25.904;2023-07-31T12:10:24;-16880.84;;;30.62;47.81
8705;BME280;4389;41.932;25.904;2023-07-31T12:13:02;-16879.53;;;30.57;46.32
8705;BME280;4389;41.932;25.904;2023-07-31T12:15:32;-16883.59;;;30.73;45.59
8705;BME280;4389;41.932;25.904;2023-07-31T12:17:59;-16884.38;;;30.76;45.59
8705;BME280;4389;41.932;25.904;2023-07-31T12:20:26;-16882.16;;;30.67;45.85
8705;BME280;4389;41.932;25.904;2023-07-31T12:22:56;-16885.19;;;30.79;45.63
8705;BME280;4389;41.932;25.904;2023-07-31T12:25:28;-16888.72;;;30.92;46.40
8705;BME280;4389;41.932;25.904;2023-07-31T12:27:55;-16891.34;;;31.02;45.57
8705;BME280;4389;41.932;25.904;2023-07-31T12:30:29;-16887.94;;;30.89;46.21
8705;BME280;4389;41.932;25.904;2023-07-31T12:32:56;-16890.56;;;30.99;45.40
8705;BME280;4389;41.932;25.904;2023-07-31T12:35:23;-16905.50;;;31.56;44.73
8705;BME280;4389;41.932;25.904;2023-07-31T12:37:50;-16916.41;;;31.98;44.41
8705;BME280;4389;41.932;25.904;2023-07-31T12:40:16;-16915.75;;;31.95;43.73
8705;BME280;4389;41.932;25.904;2023-07-31T12:42:45;-16905.78;;;31.57;43.81
8705;BME280;4389;41.932;25.904;2023-07-31T12:45:11;-16898.97;;;31.31;45.09
8705;BME280;4389;41.932;25.904;2023-07-31T12:47:38;-16910.25;;;31.74;44.25
8705;BME280;4389;41.932;25.904;2023-07-31T12:50:06;-16918.38;;;32.05;43.34
8705;BME280;4389;41.932;25.904;2023-07-31T12:52:33;-16911.81;;;31.80;43.12
8705;BME280;4389;41.932;25.904;2023-07-31T12:55:00;-16902.91;;;31.46;43.04
8705;BME280;4389;41.932;25.904;2023-07-31T12:57:27;-16895.81;;;31.19;43.32
8705;BME280;4389;41.932;25.904;2023-07-31T12:59:55;-16901.06;;;31.39;42.05
8705;BME280;4389;41.932;25.904;2023-07-31T13:02:22;-16903.69;;;31.49;41.87
8705;BME280;4389;41.932;25.904;2023-07-31T13:04:49;-16913.25;;;31.86;41.65
8705;BME280;4389;41.932;25.904;2023-07-31T13:07:16;-16908.41;;;31.67;40.81
8705;BME280;4389;41.932;25.904;2023-07-31T13:09:43;-16905.25;;;31.55;41.80